< Cyclone 202207 2022 Season
Cyclone 202208 (Seth)
General InformationTrack Information on Google MapsList of All Images || ResourceGoogle EarthGE AnimationAtom FeedGeoJSON
Detalied Best Track (Time Zone = UTC)
Year Month Day Hour Lat. Long. Pressure (hPa) Wind (kt) Class Image Chart
2021 12 23 12 -8.6 130.0 1004 15 2 Image --
2021 12 23 18 -9.1 129.9 1004 15 2 Image --
2021 12 24 00 -9.7 129.8 1004 15 2 Image --
2021 12 24 06 -10.1 129.9 1002 15 2 Image --
2021 12 24 12 -10.4 130.1 1004 15 2 Image --
2021 12 24 18 -10.9 130.1 1000 20 2 Image --
2021 12 25 00 -11.4 130.1 1000 25 2 Image --
2021 12 25 06 -11.8 130.0 996 25 2 Image --
2021 12 25 12 -12.4 130.2 998 25 2 Image --
2021 12 25 18 -12.6 130.5 996 25 2 Image --
2021 12 26 00 -13.2 130.6 997 20 2 Image --
2021 12 26 06 -13.6 130.6 996 20 2 Image --
2021 12 26 12 -13.8 130.6 999 20 2 Image --
2021 12 26 18 -13.9 130.6 998 20 2 Image --
2021 12 27 00 -13.4 130.3 999 20 2 Image --
2021 12 27 06 -13.3 130.6 997 15 2 Image --
2021 12 27 12 -13.5 131.5 1000 15 2 Image --
2021 12 27 18 -13.7 132.6 998 15 2 Image --
2021 12 28 00 -13.9 133.7 999 15 2 Image --
2021 12 28 06 -14.2 135.4 995 15 2 Image --
2021 12 28 12 -14.4 136.8 997 20 2 Image --
2021 12 28 18 -14.9 138.1 997 25 2 Image --
2021 12 29 00 -15.1 139.8 997 25 2 Image --
2021 12 29 06 -15.3 141.5 995 25 2 Image --
2021 12 29 12 -15.8 143.4 998 15 2 Image --
2021 12 29 18 -17.1 146.1 998 15 2 Image --
2021 12 30 00 -17.4 147.4 997 30 2 Image --
2021 12 30 06 -17.7 149.2 996 30 2 Image --
2021 12 30 12 -17.8 150.6 994 30 2 Image --
2021 12 30 18 -18.3 151.8 994 30 2 Image --
2021 12 31 00 -19.3 153.3 992 40 3 Image --
2021 12 31 06 -19.9 154.5 986 50 4 Image --
2021 12 31 12 -20.5 155.3 982 55 4 Image --
2021 12 31 18 -20.9 155.8 986 45 3 Image --
2022 1 1 00 -21.2 156.7 988 45 3 Image --
2022 1 1 06 -21.6 157.5 988 45 3 Image --
2022 1 1 12 -22.7 158.3 990 40 3 Image --
2022 1 1 18 -23.9 158.8 990 40 3 Image --
2022 1 2 00 -25.7 159.0 990 40 3 Image --
2022 1 2 06 -26.4 158.6 988 40 3 Image --
2022 1 2 12 -27.0 158.3 990 35 3 Image --
2022 1 2 18 -27.4 157.7 990 30 2 Image --
2022 1 3 00 -27.8 157.3 990 25 2 Image --
2022 1 3 06 -28.0 157.3 990 25 2 Image --
2022 1 3 12 -28.0 157.0 992 25 2 Image --
2022 1 3 18 -27.9 156.2 994 25 2 Image --
2022 1 4 00 -27.5 156.0 996 30 2 Image --
2022 1 4 06 -26.8 155.8 996 25 2 Image --
2022 1 4 12 -26.5 155.2 998 25 2 Image --
2022 1 4 18 -25.9 155.7 996 25 2 Image --
2022 1 5 00 -25.5 155.7 998 25 2 Image --
2022 1 5 06 -25.1 155.8 998 25 2 Image --
2022 1 5 12 -25.1 155.2 998 25 2 Image --
2022 1 5 18 -25.1 154.7 998 25 2 Image --
2022 1 6 00 -24.9 154.3 1000 25 2 Image --
2022 1 6 06 -24.7 153.9 1000 25 2 Image --
2022 1 6 12 -24.9 153.3 1002 20 2 Image --
2022 1 6 18 -24.9 153.0 1002 20 2 Image --
2022 1 6 21 -25.2 152.8 1004 20 2 Image --
2022 1 7 00 -25.4 152.5 1004 15 2 Image --
2022 1 7 06 -25.7 152.2 1004 15 2 Image --
< Cyclone 202207 2022 Season

Help